createdAt,value
2022-09-16T00:00:45.835Z,19.03
2022-09-16T00:03:14.949Z,19.01
2022-09-16T00:05:43.880Z,19.00
2022-09-16T00:08:12.376Z,18.99
2022-09-16T00:10:43.762Z,18.98
2022-09-16T00:13:11.938Z,18.96
2022-09-16T00:15:43.855Z,18.95
2022-09-16T00:18:12.180Z,18.96
2022-09-16T00:20:45.148Z,18.96
2022-09-16T00:23:12.877Z,18.89
2022-09-16T00:25:42.019Z,18.95
2022-09-16T00:28:10.205Z,18.95
2022-09-16T00:30:38.403Z,18.94
2022-09-16T00:33:06.238Z,18.94
2022-09-16T00:35:34.459Z,18.93
2022-09-16T00:38:02.206Z,18.92
2022-09-16T00:40:30.069Z,18.92
2022-09-16T00:43:00.552Z,18.92
2022-09-16T00:45:31.696Z,18.91
2022-09-16T00:48:03.210Z,18.89
2022-09-16T00:50:38.414Z,18.88
2022-09-16T00:53:07.286Z,18.85
2022-09-16T00:55:38.578Z,18.83
2022-09-16T00:58:14.430Z,18.81
2022-09-16T01:00:43.966Z,18.77
2022-09-16T01:03:12.042Z,18.75
2022-09-16T01:05:40.793Z,18.72
2022-09-16T01:08:08.565Z,18.71
2022-09-16T01:10:36.376Z,18.66
2022-09-16T01:13:09.656Z,18.67
2022-09-16T01:15:45.220Z,18.65
2022-09-16T01:18:23.127Z,18.62
2022-09-16T01:21:19.263Z,18.60
2022-09-16T01:24:30.473Z,18.59
2022-09-16T01:27:26.317Z,18.53
2022-09-16T01:30:39.907Z,18.54
2022-09-16T01:33:17.714Z,18.52
2022-09-16T01:35:58.553Z,18.50
2022-09-16T01:38:36.429Z,18.47
2022-09-16T01:41:11.465Z,18.47
2022-09-16T01:43:54.586Z,18.44
2022-09-16T01:46:31.554Z,18.40
2022-09-16T01:49:03.797Z,18.37
2022-09-16T01:51:38.977Z,18.37
2022-09-16T01:54:13.255Z,18.36
2022-09-16T01:56:46.062Z,18.28
2022-09-16T01:59:20.376Z,18.34
2022-09-16T02:01:55.346Z,18.33
2022-09-16T02:04:31.071Z,18.30
2022-09-16T02:07:03.589Z,18.26
2022-09-16T02:09:35.840Z,18.31
2022-09-16T02:12:09.734Z,18.29
2022-09-16T02:14:42.263Z,18.27
2022-09-16T02:17:12.691Z,18.26
2022-09-16T02:19:45.542Z,18.25
2022-09-16T02:22:17.841Z,18.22
2022-09-16T02:24:48.940Z,18.19
2022-09-16T02:27:19.526Z,18.19
2022-09-16T02:29:52.428Z,18.16
2022-09-16T02:32:22.696Z,18.11
2022-09-16T02:34:54.446Z,18.09
2022-09-16T02:37:26.626Z,18.09
2022-09-16T02:40:02.525Z,18.09
2022-09-16T02:42:31.697Z,18.05
2022-09-16T02:45:01.285Z,18.04
2022-09-16T02:47:33.122Z,17.99
2022-09-16T02:50:11.458Z,18.04
2022-09-16T02:52:45.371Z,18.03
2022-09-16T02:55:23.142Z,18.05
2022-09-16T02:57:52.006Z,18.03
2022-09-16T03:00:20.614Z,18.03
2022-09-16T03:02:48.520Z,18.04
2022-09-16T03:05:18.102Z,18.03
2022-09-16T03:07:45.950Z,18.02
2022-09-16T03:10:15.061Z,18.00
2022-09-16T03:12:56.694Z,18.01
2022-09-16T03:15:47.898Z,18.02
2022-09-16T03:18:34.232Z,18.01
2022-09-16T03:21:09.228Z,18.02
2022-09-16T03:23:49.651Z,18.01
2022-09-16T03:26:26.488Z,18.02
2022-09-16T03:29:04.762Z,18.02
2022-09-16T03:31:39.877Z,18.01
2022-09-16T03:34:15.189Z,17.95
2022-09-16T03:36:46.177Z,18.03
2022-09-16T03:39:15.969Z,18.04
2022-09-16T03:41:44.807Z,18.01
2022-09-16T03:44:12.570Z,17.98
2022-09-16T03:46:40.956Z,17.96
2022-09-16T03:49:08.713Z,17.93
2022-09-16T03:51:36.550Z,17.91
2022-09-16T03:54:06.432Z,17.90
2022-09-16T03:56:34.184Z,17.88
2022-09-16T03:59:01.985Z,17.85
2022-09-16T04:01:30.429Z,17.85
2022-09-16T04:03:58.234Z,17.84
2022-09-16T04:06:25.937Z,17.83
2022-09-16T04:08:54.426Z,17.82
2022-09-16T04:11:23.557Z,17.81
2022-09-16T04:13:51.365Z,17.80
2022-09-16T04:16:22.558Z,17.79
2022-09-16T04:18:50.442Z,17.77
2022-09-16T04:21:19.146Z,17.78
2022-09-16T04:23:47.325Z,17.77
2022-09-16T04:26:15.595Z,17.76
2022-09-16T04:28:44.824Z,17.75
2022-09-16T04:31:14.163Z,17.76
2022-09-16T04:33:43.554Z,17.77
2022-09-16T04:36:13.818Z,17.74
2022-09-16T04:38:42.945Z,17.74
2022-09-16T04:41:13.862Z,17.76
2022-09-16T04:43:42.969Z,17.70
2022-09-16T04:46:15.812Z,17.75
2022-09-16T04:48:44.059Z,17.74
2022-09-16T04:51:14.198Z,17.75
2022-09-16T04:53:44.210Z,17.72
2022-09-16T04:56:16.111Z,17.71
2022-09-16T04:58:45.432Z,17.70
2022-09-16T05:01:17.744Z,17.69
2022-09-16T05:03:47.916Z,17.66
2022-09-16T05:06:20.675Z,17.66
2022-09-16T05:08:49.039Z,17.63
2022-09-16T05:11:19.268Z,17.61
2022-09-16T05:13:48.145Z,17.61
2022-09-16T05:16:21.464Z,17.63
2022-09-16T05:18:51.451Z,17.59
2022-09-16T05:21:20.731Z,17.57
2022-09-16T05:23:49.495Z,17.57
2022-09-16T05:26:20.625Z,17.55
2022-09-16T05:28:48.442Z,17.54
2022-09-16T05:31:21.813Z,17.54
2022-09-16T05:33:56.103Z,17.53
2022-09-16T05:36:25.010Z,17.52
2022-09-16T05:39:18.170Z,17.52
2022-09-16T05:41:40.950Z,17.52
2022-09-16T05:44:08.920Z,17.52
2022-09-16T05:46:40.748Z,17.51
2022-09-16T05:49:08.556Z,17.51
2022-09-16T05:51:38.117Z,17.49
2022-09-16T05:54:06.641Z,17.44
2022-09-16T05:56:34.884Z,17.44
2022-09-16T05:59:03.326Z,17.44
2022-09-16T06:01:33.065Z,17.39
2022-09-16T06:04:07.318Z,17.37
2022-09-16T06:06:36.875Z,17.33
2022-09-16T06:09:07.562Z,17.32
2022-09-16T06:11:38.608Z,17.32
2022-09-16T06:14:07.121Z,17.28
2022-09-16T06:16:35.335Z,17.24
2022-09-16T06:19:07.451Z,17.26
2022-09-16T06:21:35.218Z,17.26
2022-09-16T06:24:03.372Z,17.22
2022-09-16T06:26:31.744Z,17.22
2022-09-16T06:28:59.473Z,17.19
2022-09-16T06:31:28.681Z,17.18
2022-09-16T06:33:57.241Z,17.18
2022-09-16T06:36:28.093Z,17.06
2022-09-16T06:38:55.901Z,17.19
2022-09-16T06:41:24.564Z,17.19
2022-09-16T06:43:52.786Z,17.19
2022-09-16T06:46:22.978Z,17.21
2022-09-16T06:48:52.799Z,17.23
2022-09-16T06:51:24.483Z,17.28
2022-09-16T06:53:56.406Z,17.30
2022-09-16T06:56:24.160Z,17.32
2022-09-16T06:58:53.290Z,17.34
2022-09-16T07:01:23.237Z,17.35
2022-09-16T07:03:52.921Z,17.38
2022-09-16T07:06:26.632Z,17.39
2022-09-16T07:09:07.684Z,17.41
2022-09-16T07:11:35.638Z,17.40
2022-09-16T07:14:03.353Z,17.39
2022-09-16T07:16:31.138Z,17.36
2022-09-16T07:19:01.283Z,17.38
2022-09-16T07:21:30.514Z,17.41
2022-09-16T07:23:59.770Z,17.40
2022-09-16T07:26:31.089Z,17.43
2022-09-16T07:29:02.250Z,17.42
2022-09-16T07:31:32.322Z,17.38
2022-09-16T07:34:04.271Z,17.44
2022-09-16T07:36:37.656Z,17.42
2022-09-16T07:39:06.501Z,17.41
2022-09-16T07:41:38.720Z,17.40
2022-09-16T07:44:07.825Z,17.36
2022-09-16T07:46:37.590Z,17.32
2022-09-16T07:49:08.188Z,17.30
2022-09-16T07:51:36.767Z,17.28
2022-09-16T07:54:06.471Z,17.26
2022-09-16T07:56:38.400Z,17.27
2022-09-16T07:59:11.075Z,17.24
2022-09-16T08:01:43.516Z,17.23
2022-09-16T08:04:12.229Z,17.20
2022-09-16T08:06:41.242Z,17.22
2022-09-16T08:09:34.251Z,17.23
2022-09-16T08:11:59.451Z,17.24
2022-09-16T08:14:27.162Z,17.25
2022-09-16T08:16:55.111Z,17.28
2022-09-16T08:19:23.309Z,17.29
2022-09-16T08:21:52.177Z,17.32
2022-09-16T08:24:20.320Z,17.34
2022-09-16T08:26:48.185Z,17.38
2022-09-16T08:29:17.799Z,17.42
2022-09-16T08:31:45.915Z,17.44
2022-09-16T08:34:13.651Z,17.46
2022-09-16T08:36:41.679Z,17.50
2022-09-16T08:39:11.945Z,17.51
2022-09-16T08:42:14.367Z,17.57
2022-09-16T08:44:50.947Z,17.57
2022-09-16T08:47:36.436Z,17.57
2022-09-16T08:50:07.244Z,17.55
2022-09-16T08:52:38.466Z,17.52
2022-09-16T08:55:11.313Z,17.49
2022-09-16T08:57:44.092Z,17.43
2022-09-16T09:00:17.522Z,17.39
2022-09-16T09:02:53.287Z,17.24
2022-09-16T09:05:48.383Z,17.26
2022-09-16T09:08:41.466Z,17.26
2022-09-16T09:11:14.629Z,17.23
2022-09-16T09:14:03.894Z,17.24
2022-09-16T09:16:44.291Z,17.17
2022-09-16T09:19:35.804Z,17.19
2022-09-16T09:22:13.722Z,17.18
2022-09-16T09:25:02.539Z,17.16
2022-09-16T09:27:38.098Z,17.16
2022-09-16T09:30:18.559Z,17.12
2022-09-16T09:33:41.845Z,17.12
2022-09-16T09:36:28.460Z,17.07
2022-09-16T09:39:32.805Z,17.09
2022-09-16T09:42:07.741Z,17.11
2022-09-16T09:44:48.840Z,17.14
2022-09-16T09:47:23.868Z,17.14
2022-09-16T09:49:57.313Z,17.21
2022-09-16T09:52:32.759Z,17.24
2022-09-16T09:55:05.840Z,17.30
2022-09-16T09:57:41.022Z,17.43
2022-09-16T10:00:16.113Z,17.54
2022-09-16T10:02:49.788Z,17.66
2022-09-16T10:05:23.330Z,17.80
2022-09-16T10:07:53.613Z,17.91
2022-09-16T10:10:24.685Z,18.06
2022-09-16T10:12:52.636Z,18.23
2022-09-16T10:15:23.428Z,18.36
2022-09-16T10:17:53.130Z,18.47
2022-09-16T10:20:29.233Z,18.59
2022-09-16T10:23:01.551Z,18.69
2022-09-16T10:25:31.875Z,18.73
2022-09-16T10:28:01.374Z,18.79
2022-09-16T10:30:34.430Z,18.85
2022-09-16T10:33:04.596Z,18.87
2022-09-16T10:35:36.451Z,18.96
2022-09-16T10:38:14.473Z,18.96
2022-09-16T10:40:53.055Z,18.98
2022-09-16T10:43:22.098Z,18.92
2022-09-16T10:45:51.674Z,18.82
2022-09-16T10:48:22.090Z,18.66
2022-09-16T10:50:56.340Z,18.53
2022-09-16T10:53:30.636Z,18.40
2022-09-16T10:56:01.089Z,18.28
2022-09-16T10:58:29.416Z,18.17
2022-09-16T11:01:21.816Z,18.09
2022-09-16T11:04:28.294Z,18.04
2022-09-16T11:07:09.254Z,18.00
2022-09-16T11:09:45.553Z,17.97
2022-09-16T11:12:41.400Z,17.99
2022-09-16T11:15:21.149Z,18.00
2022-09-16T11:18:04.130Z,18.03
2022-09-16T11:21:14.114Z,18.06
2022-09-16T11:24:03.919Z,18.01
2022-09-16T11:26:41.026Z,18.09
2022-09-16T11:29:34.572Z,18.09
2022-09-16T11:32:13.127Z,18.05
2022-09-16T11:34:55.574Z,18.08
2022-09-16T11:37:31.798Z,17.98
2022-09-16T11:40:16.617Z,17.93
2022-09-16T11:42:53.389Z,17.88
2022-09-16T11:45:40.110Z,17.83
2022-09-16T11:48:24.667Z,17.79
2022-09-16T11:51:04.325Z,17.78
2022-09-16T11:53:46.626Z,17.72
2022-09-16T11:56:21.076Z,17.69
2022-09-16T11:58:51.664Z,17.63
2022-09-16T12:01:30.375Z,17.58
2022-09-16T12:04:05.004Z,17.54
2022-09-16T12:06:42.061Z,17.50
2022-09-16T12:09:17.956Z,17.42
2022-09-16T12:11:52.311Z,17.35
2022-09-16T12:14:23.830Z,17.28
2022-09-16T12:16:56.205Z,17.19
2022-09-16T12:19:29.494Z,17.14
2022-09-16T12:22:04.981Z,17.08
2022-09-16T12:24:37.655Z,17.01
2022-09-16T12:27:16.089Z,16.93
2022-09-16T12:29:50.258Z,16.97
2022-09-16T12:32:26.378Z,16.96
2022-09-16T12:34:59.354Z,16.97
2022-09-16T12:37:35.381Z,16.88
2022-09-16T12:40:04.458Z,16.88
2022-09-16T12:42:57.437Z,16.91
2022-09-16T12:45:54.971Z,16.97
2022-09-16T12:48:44.357Z,17.01
2022-09-16T12:51:32.766Z,17.05
2022-09-16T12:55:03.967Z,17.04
2022-09-16T12:57:45.805Z,17.10
2022-09-16T13:00:22.533Z,17.10
2022-09-16T13:02:54.134Z,17.07
2022-09-16T13:05:30.932Z,17.06
2022-09-16T13:08:05.167Z,17.09
2022-09-16T13:10:54.375Z,17.07
2022-09-16T13:13:32.849Z,17.01
2022-09-16T13:16:02.566Z,17.08
2022-09-16T13:18:42.678Z,17.13
2022-09-16T13:21:24.011Z,17.17
2022-09-16T13:24:00.933Z,17.20
2022-09-16T13:26:39.776Z,17.26
2022-09-16T13:29:32.474Z,17.25
2022-09-16T13:32:00.321Z,17.29
2022-09-16T13:34:28.527Z,17.32
2022-09-16T13:36:56.594Z,17.38
2022-09-16T13:39:33.123Z,17.40
2022-09-16T13:42:12.500Z,17.42
2022-09-16T13:44:44.794Z,17.49
2022-09-16T13:47:30.831Z,17.13
2022-09-16T13:50:03.446Z,16.94
2022-09-16T13:52:33.530Z,16.86
2022-09-16T13:55:11.770Z,16.70
2022-09-16T13:57:52.933Z,16.68
2022-09-16T14:00:24.677Z,16.64
2022-09-16T14:03:08.408Z,16.61
2022-09-16T14:06:03.016Z,16.62
2022-09-16T14:08:40.526Z,16.66
2022-09-16T14:11:15.495Z,16.69
2022-09-16T14:13:46.349Z,16.75
2022-09-16T14:16:21.344Z,16.79
2022-09-16T14:18:56.745Z,16.85
2022-09-16T14:21:25.310Z,16.94
2022-09-16T14:26:23.678Z,17.02
2022-09-16T14:28:51.905Z,17.04
2022-09-16T14:31:23.802Z,17.07
2022-09-16T14:33:56.768Z,17.08
2022-09-16T14:36:26.911Z,17.15
2022-09-16T14:38:58.960Z,17.15
2022-09-16T14:41:31.928Z,17.16
2022-09-16T14:44:08.483Z,17.11
2022-09-16T14:46:43.568Z,17.02
2022-09-16T14:49:13.304Z,16.96
2022-09-16T14:51:45.429Z,16.99
2022-09-16T14:54:18.886Z,16.90
2022-09-16T14:56:56.936Z,16.91
2022-09-16T14:59:28.316Z,16.81
2022-09-16T15:02:02.555Z,16.83
2022-09-16T15:04:34.298Z,16.79
2022-09-16T15:07:11.944Z,16.68
2022-09-16T15:09:46.485Z,16.71
2022-09-16T15:12:29.217Z,16.72
2022-09-16T15:14:58.005Z,16.74
2022-09-16T15:17:29.176Z,16.74
2022-09-16T15:19:59.092Z,16.80
2022-09-16T15:22:28.040Z,16.83
2022-09-16T15:24:58.389Z,16.89
2022-09-16T15:27:28.780Z,16.93
2022-09-16T15:29:59.958Z,16.97
2022-09-16T15:32:32.064Z,17.00
2022-09-16T15:35:17.440Z,16.96
2022-09-16T15:37:46.016Z,17.01
2022-09-16T15:40:35.759Z,17.02
2022-09-16T15:43:13.194Z,17.03
2022-09-16T15:45:41.646Z,17.00
2022-09-16T15:48:17.997Z,17.03
2022-09-16T15:50:49.989Z,17.02
2022-09-16T15:53:23.792Z,17.02
2022-09-16T15:56:01.521Z,17.04
2022-09-16T15:58:42.474Z,17.09
2022-09-16T16:01:17.521Z,17.04
2022-09-16T16:03:57.153Z,17.07
2022-09-16T16:06:47.234Z,17.06
2022-09-16T16:09:31.915Z,17.06
2022-09-16T16:12:01.967Z,17.07
2022-09-16T16:14:33.264Z,17.07
2022-09-16T16:17:18.547Z,17.04
2022-09-16T16:19:50.526Z,17.03
2022-09-16T16:22:19.327Z,16.99
2022-09-16T16:24:47.404Z,17.00
2022-09-16T16:27:15.539Z,16.97
2022-09-16T16:29:43.293Z,16.95
2022-09-16T16:32:13.379Z,16.90
2022-09-16T16:34:43.082Z,16.90
2022-09-16T16:37:33.679Z,16.84
2022-09-16T16:40:03.981Z,16.77
2022-09-16T16:42:32.238Z,16.67
2022-09-16T16:44:59.978Z,16.70
2022-09-16T16:47:27.758Z,16.65
2022-09-16T16:49:56.111Z,16.59
2022-09-16T16:52:25.204Z,16.56
2022-09-16T16:54:52.917Z,16.45
2022-09-16T16:57:21.042Z,16.39
2022-09-16T16:59:48.796Z,16.36
2022-09-16T17:02:17.314Z,16.30
2022-09-16T17:04:45.044Z,16.29
2022-09-16T17:07:28.413Z,16.23
2022-09-16T17:09:58.860Z,16.18
2022-09-16T17:12:26.996Z,16.09
2022-09-16T17:14:55.491Z,16.02
2022-09-16T17:17:26.535Z,16.01
2022-09-16T17:19:58.801Z,15.94
2022-09-16T17:22:26.533Z,15.93
2022-09-16T17:24:54.260Z,15.82
2022-09-16T17:27:25.676Z,15.86
2022-09-16T17:29:53.430Z,15.78
2022-09-16T17:32:21.238Z,15.71
2022-09-16T17:34:49.269Z,15.59
2022-09-16T17:37:19.776Z,15.49
2022-09-16T17:39:48.716Z,15.48
2022-09-16T17:42:16.691Z,15.48
2022-09-16T17:44:45.801Z,15.41
2022-09-16T17:47:14.113Z,15.44
2022-09-16T17:49:41.862Z,15.49
2022-09-16T17:52:09.592Z,15.52
2022-09-16T17:54:37.636Z,15.57
2022-09-16T17:57:05.505Z,15.61
2022-09-16T17:59:33.441Z,15.63
2022-09-16T18:02:02.533Z,15.68
2022-09-16T18:04:31.109Z,15.70
2022-09-16T18:06:59.139Z,15.72
2022-09-16T18:09:26.950Z,15.72
2022-09-16T18:11:54.884Z,15.72
2022-09-16T18:14:23.574Z,15.71
2022-09-16T18:16:51.811Z,15.70
2022-09-16T18:19:21.517Z,15.68
2022-09-16T18:21:49.270Z,15.65
2022-09-16T18:24:17.414Z,15.62
2022-09-16T18:26:45.301Z,15.58
2022-09-16T18:29:14.331Z,15.57
2022-09-16T18:31:43.917Z,15.48
2022-09-16T18:34:12.333Z,15.47
2022-09-16T18:36:41.825Z,15.46
2022-09-16T18:39:13.768Z,15.48
2022-09-16T18:41:42.787Z,15.50
2022-09-16T18:44:14.932Z,15.54
2022-09-16T18:46:43.066Z,15.55
2022-09-16T18:49:12.495Z,15.60
2022-09-16T18:51:47.233Z,15.66
2022-09-16T18:54:20.275Z,15.68
2022-09-16T18:56:47.984Z,15.70
2022-09-16T18:59:23.086Z,15.72
2022-09-16T19:01:53.363Z,15.70
2022-09-16T19:04:23.901Z,15.77
2022-09-16T19:06:55.961Z,15.81
2022-09-16T19:09:25.407Z,15.82
2022-09-16T19:11:54.348Z,15.82
2022-09-16T19:14:25.104Z,15.83
2022-09-16T19:16:53.143Z,15.82
2022-09-16T19:19:22.300Z,15.83
2022-09-16T19:21:50.131Z,15.81
2022-09-16T19:24:21.281Z,15.83
2022-09-16T19:26:51.051Z,15.78
2022-09-16T19:29:19.297Z,15.79
2022-09-16T19:31:49.638Z,15.80
2022-09-16T19:34:17.741Z,15.81
2022-09-16T19:36:45.679Z,15.79
2022-09-16T19:39:14.700Z,15.79
2022-09-16T19:41:45.145Z,15.78
2022-09-16T19:44:16.143Z,15.73
2022-09-16T19:46:46.734Z,15.71
2022-09-16T19:49:17.526Z,15.63
2022-09-16T19:51:45.532Z,15.67
2022-09-16T19:54:13.606Z,15.62
2022-09-16T19:56:43.479Z,15.59
2022-09-16T19:59:14.053Z,15.55
2022-09-16T20:01:42.375Z,15.52
2022-09-16T20:04:10.740Z,15.49
2022-09-16T20:06:40.669Z,15.42
2022-09-16T20:09:11.499Z,15.44
2022-09-16T20:11:41.876Z,15.42
2022-09-16T20:14:15.524Z,15.40
2022-09-16T20:16:44.433Z,15.36
2022-09-16T20:19:14.519Z,15.33
2022-09-16T20:21:42.818Z,15.31
2022-09-16T20:24:16.487Z,15.26
2022-09-16T20:26:44.197Z,15.24
2022-09-16T20:29:12.456Z,15.22
2022-09-16T20:31:41.628Z,15.22
2022-09-16T20:34:11.249Z,15.22
2022-09-16T20:36:41.010Z,15.18
2022-09-16T20:39:10.389Z,15.17
2022-09-16T20:41:40.726Z,15.16
2022-09-16T20:44:08.671Z,15.15
2022-09-16T20:46:38.706Z,15.12
2022-09-16T20:49:10.678Z,15.12
2022-09-16T20:51:38.535Z,15.07
2022-09-16T20:54:08.890Z,15.01
2022-09-16T20:56:39.826Z,15.02
2022-09-16T20:59:09.507Z,14.97
2022-09-16T21:01:39.262Z,14.96
2022-09-16T21:04:11.712Z,14.96
2022-09-16T21:06:39.910Z,14.91
2022-09-16T21:09:10.198Z,14.89
2022-09-16T21:11:39.172Z,14.87
2022-09-16T21:14:07.852Z,14.86
2022-09-16T21:16:37.671Z,14.87
2022-09-16T21:19:09.869Z,14.82
2022-09-16T21:21:39.585Z,14.85
2022-09-16T21:24:09.113Z,14.83
2022-09-16T21:26:39.353Z,14.82
2022-09-16T21:29:11.060Z,14.79
2022-09-16T21:31:41.311Z,14.80
2022-09-16T21:34:16.009Z,14.82
2022-09-16T21:36:45.206Z,14.78
2022-09-16T21:39:13.919Z,14.74
2022-09-16T21:41:41.726Z,14.82
2022-09-16T21:44:10.016Z,14.85
2022-09-16T21:46:41.301Z,14.84
2022-09-16T21:49:18.766Z,14.83
2022-09-16T21:51:47.356Z,14.89
2022-09-16T21:54:19.656Z,14.91
2022-09-16T21:56:49.003Z,14.85
2022-09-16T21:59:17.257Z,14.92
2022-09-16T22:01:45.019Z,14.94
2022-09-16T22:04:16.367Z,14.89
2022-09-16T22:06:44.221Z,14.92
2022-09-16T22:09:12.880Z,14.93
2022-09-16T22:11:42.543Z,14.92
2022-09-16T22:14:12.320Z,14.92
2022-09-16T22:16:41.439Z,14.91
2022-09-16T22:19:11.686Z,14.91
2022-09-16T22:21:44.908Z,14.91
2022-09-16T22:24:14.039Z,14.90
2022-09-16T22:26:42.998Z,14.87
2022-09-16T22:29:13.605Z,14.88
2022-09-16T22:31:42.910Z,14.73
2022-09-16T22:34:11.292Z,14.83
2022-09-16T22:36:40.678Z,14.83
2022-09-16T22:39:12.228Z,14.84
2022-09-16T22:41:40.024Z,14.82
2022-09-16T22:44:08.096Z,14.81
2022-09-16T22:46:42.492Z,14.83
2022-09-16T22:49:11.149Z,14.79
2022-09-16T22:51:40.499Z,14.77
2022-09-16T22:54:09.334Z,14.74
2022-09-16T22:56:37.367Z,14.72
2022-09-16T22:59:06.702Z,14.70
2022-09-16T23:01:38.023Z,14.68
2022-09-16T23:04:07.574Z,14.67
2022-09-16T23:06:37.004Z,14.66
2022-09-16T23:09:07.290Z,14.67
2022-09-16T23:11:36.515Z,14.61
2022-09-16T23:14:05.750Z,14.61
2022-09-16T23:16:35.781Z,14.62
2022-09-16T23:19:06.664Z,14.61
2022-09-16T23:21:36.053Z,14.58
2022-09-16T23:24:07.980Z,14.58
2022-09-16T23:26:38.190Z,14.58
2022-09-16T23:29:11.530Z,14.60
2022-09-16T23:31:41.555Z,14.61
2022-09-16T23:34:10.372Z,14.60
2022-09-16T23:36:39.534Z,14.59
2022-09-16T23:39:10.088Z,14.61
2022-09-16T23:41:38.918Z,14.59
2022-09-16T23:44:07.235Z,14.64
2022-09-16T23:46:35.203Z,14.65
2022-09-16T23:49:03.527Z,14.64
2022-09-16T23:51:32.260Z,14.64
2022-09-16T23:54:01.071Z,14.64
2022-09-16T23:56:30.220Z,14.64
2022-09-16T23:59:01.072Z,14.64
